sensor_id;sensor_type;location;lat;lon;timestamp;P1;durP1;ratioP1;P2;durP2;ratioP2
46723;SDS011;32463;48.298;11.620;2023-09-12T00:00:04;16.95;;;10.15;;
46723;SDS011;32463;48.298;11.620;2023-09-12T00:02:32;15.48;;;9.80;;
46723;SDS011;32463;48.298;11.620;2023-09-12T00:04:58;14.23;;;9.88;;
46723;SDS011;32463;48.298;11.620;2023-09-12T00:07:25;17.00;;;10.38;;
46723;SDS011;32463;48.298;11.620;2023-09-12T00:09:51;16.23;;;9.90;;
46723;SDS011;32463;48.298;11.620;2023-09-12T00:12:17;14.95;;;10.23;;
46723;SDS011;32463;48.298;11.620;2023-09-12T00:14:49;16.52;;;9.02;;
46723;SDS011;32463;48.298;11.620;2023-09-12T00:17:16;15.52;;;9.73;;
46723;SDS011;32463;48.298;11.620;2023-09-12T00:19:42;15.38;;;9.70;;
46723;SDS011;32463;48.298;11.620;2023-09-12T00:22:09;15.45;;;9.73;;
46723;SDS011;32463;48.298;11.620;2023-09-12T00:24:36;13.02;;;9.55;;
46723;SDS011;32463;48.298;11.620;2023-09-12T00:27:03;12.93;;;9.30;;
46723;SDS011;32463;48.298;11.620;2023-09-12T00:29:30;15.73;;;11.15;;
46723;SDS011;32463;48.298;11.620;2023-09-12T00:31:58;15.10;;;10.23;;
46723;SDS011;32463;48.298;11.620;2023-09-12T00:34:24;18.65;;;10.77;;
46723;SDS011;32463;48.298;11.620;2023-09-12T00:36:51;16.95;;;10.15;;
46723;SDS011;32463;48.298;11.620;2023-09-12T00:39:17;14.95;;;9.45;;
46723;SDS011;32463;48.298;11.620;2023-09-12T00:41:44;15.27;;;10.30;;
46723;SDS011;32463;48.298;11.620;2023-09-12T00:44:10;14.32;;;10.23;;
46723;SDS011;32463;48.298;11.620;2023-09-12T00:46:37;13.65;;;9.38;;
46723;SDS011;32463;48.298;11.620;2023-09-12T00:49:06;13.73;;;9.70;;
46723;SDS011;32463;48.298;11.620;2023-09-12T00:51:35;15.82;;;9.48;;
46723;SDS011;32463;48.298;11.620;2023-09-12T00:54:02;16.95;;;10.52;;
46723;SDS011;32463;48.298;11.620;2023-09-12T00:56:29;13.15;;;8.98;;
46723;SDS011;32463;48.298;11.620;2023-09-12T00:58:56;13.98;;;8.80;;
46723;SDS011;32463;48.298;11.620;2023-09-12T01:01:23;15.98;;;9.57;;
46723;SDS011;32463;48.298;11.620;2023-09-12T01:03:50;15.00;;;9.18;;
46723;SDS011;32463;48.298;11.620;2023-09-12T01:06:18;13.50;;;8.95;;
46723;SDS011;32463;48.298;11.620;2023-09-12T01:08:45;14.60;;;9.60;;
46723;SDS011;32463;48.298;11.620;2023-09-12T01:11:12;16.48;;;9.60;;
46723;SDS011;32463;48.298;11.620;2023-09-12T01:13:40;16.05;;;9.57;;
46723;SDS011;32463;48.298;11.620;2023-09-12T01:16:06;15.75;;;10.32;;
46723;SDS011;32463;48.298;11.620;2023-09-12T01:18:32;14.10;;;9.43;;
46723;SDS011;32463;48.298;11.620;2023-09-12T01:21:36;16.70;;;9.73;;
46723;SDS011;32463;48.298;11.620;2023-09-12T01:30:00;14.98;;;9.70;;
46723;SDS011;32463;48.298;11.620;2023-09-12T01:32:29;15.23;;;9.82;;
46723;SDS011;32463;48.298;11.620;2023-09-12T01:34:57;13.15;;;9.38;;
46723;SDS011;32463;48.298;11.620;2023-09-12T01:37:23;15.52;;;10.65;;
46723;SDS011;32463;48.298;11.620;2023-09-12T01:39:50;15.85;;;10.40;;
46723;SDS011;32463;48.298;11.620;2023-09-12T01:42:16;17.02;;;10.95;;
46723;SDS011;32463;48.298;11.620;2023-09-12T01:44:46;17.17;;;11.43;;
46723;SDS011;32463;48.298;11.620;2023-09-12T01:47:16;16.35;;;11.40;;
46723;SDS011;32463;48.298;11.620;2023-09-12T01:49:45;16.98;;;10.45;;
46723;SDS011;32463;48.298;11.620;2023-09-12T01:52:14;16.85;;;11.38;;
46723;SDS011;32463;48.298;11.620;2023-09-12T01:54:41;15.27;;;9.73;;
46723;SDS011;32463;48.298;11.620;2023-09-12T01:57:08;15.55;;;10.55;;
46723;SDS011;32463;48.298;11.620;2023-09-12T01:59:35;16.98;;;11.57;;
46723;SDS011;32463;48.298;11.620;2023-09-12T02:02:02;16.48;;;10.13;;
46723;SDS011;32463;48.298;11.620;2023-09-12T02:04:29;16.23;;;10.48;;
46723;SDS011;32463;48.298;11.620;2023-09-12T02:06:56;16.75;;;10.80;;
46723;SDS011;32463;48.298;11.620;2023-09-12T02:09:24;16.58;;;11.00;;
46723;SDS011;32463;48.298;11.620;2023-09-12T02:11:51;17.77;;;12.43;;
46723;SDS011;32463;48.298;11.620;2023-09-12T02:14:17;18.35;;;12.50;;
46723;SDS011;32463;48.298;11.620;2023-09-12T02:16:44;18.83;;;12.02;;
46723;SDS011;32463;48.298;11.620;2023-09-12T02:19:10;25.45;;;13.00;;
46723;SDS011;32463;48.298;11.620;2023-09-12T02:21:37;17.45;;;11.65;;
46723;SDS011;32463;48.298;11.620;2023-09-12T02:24:03;20.65;;;13.55;;
46723;SDS011;32463;48.298;11.620;2023-09-12T02:26:30;16.55;;;11.50;;
46723;SDS011;32463;48.298;11.620;2023-09-12T02:29:00;18.92;;;11.95;;
46723;SDS011;32463;48.298;11.620;2023-09-12T02:31:27;19.30;;;12.57;;
46723;SDS011;32463;48.298;11.620;2023-09-12T02:33:54;19.45;;;13.63;;
46723;SDS011;32463;48.298;11.620;2023-09-12T02:36:20;16.45;;;11.95;;
46723;SDS011;32463;48.298;11.620;2023-09-12T02:38:47;17.45;;;12.63;;
46723;SDS011;32463;48.298;11.620;2023-09-12T02:41:13;20.02;;;13.52;;
46723;SDS011;32463;48.298;11.620;2023-09-12T02:43:39;17.25;;;11.80;;
46723;SDS011;32463;48.298;11.620;2023-09-12T02:46:06;20.65;;;12.60;;
46723;SDS011;32463;48.298;11.620;2023-09-12T02:48:32;18.45;;;11.93;;
46723;SDS011;32463;48.298;11.620;2023-09-12T02:50:59;20.25;;;12.80;;
46723;SDS011;32463;48.298;11.620;2023-09-12T02:53:25;16.35;;;11.07;;
46723;SDS011;32463;48.298;11.620;2023-09-12T02:55:51;16.55;;;11.60;;
46723;SDS011;32463;48.298;11.620;2023-09-12T02:58:19;17.27;;;11.82;;
46723;SDS011;32463;48.298;11.620;2023-09-12T03:00:45;19.70;;;12.52;;
46723;SDS011;32463;48.298;11.620;2023-09-12T03:03:15;18.83;;;12.45;;
46723;SDS011;32463;48.298;11.620;2023-09-12T03:05:42;16.33;;;11.38;;
46723;SDS011;32463;48.298;11.620;2023-09-12T03:08:08;18.00;;;11.02;;
46723;SDS011;32463;48.298;11.620;2023-09-12T03:10:35;19.08;;;12.25;;
46723;SDS011;32463;48.298;11.620;2023-09-12T03:13:02;16.25;;;10.70;;
46723;SDS011;32463;48.298;11.620;2023-09-12T03:15:29;16.40;;;11.07;;
46723;SDS011;32463;48.298;11.620;2023-09-12T03:18:01;16.13;;;10.13;;
46723;SDS011;32463;48.298;11.620;2023-09-12T03:20:28;16.38;;;11.45;;
46723;SDS011;32463;48.298;11.620;2023-09-12T03:22:54;15.88;;;10.65;;
46723;SDS011;32463;48.298;11.620;2023-09-12T03:25:20;20.58;;;12.23;;
46723;SDS011;32463;48.298;11.620;2023-09-12T03:27:47;18.63;;;11.52;;
46723;SDS011;32463;48.298;11.620;2023-09-12T03:30:13;15.93;;;10.77;;
46723;SDS011;32463;48.298;11.620;2023-09-12T03:32:40;19.02;;;12.13;;
46723;SDS011;32463;48.298;11.620;2023-09-12T03:35:06;17.58;;;11.07;;
46723;SDS011;32463;48.298;11.620;2023-09-12T03:37:33;16.17;;;10.70;;
46723;SDS011;32463;48.298;11.620;2023-09-12T03:39:59;19.17;;;11.05;;
46723;SDS011;32463;48.298;11.620;2023-09-12T03:42:26;16.90;;;10.75;;
46723;SDS011;32463;48.298;11.620;2023-09-12T03:44:52;16.02;;;11.02;;
46723;SDS011;32463;48.298;11.620;2023-09-12T03:47:19;17.67;;;11.73;;
46723;SDS011;32463;48.298;11.620;2023-09-12T03:49:45;17.25;;;11.82;;
46723;SDS011;32463;48.298;11.620;2023-09-12T03:52:11;19.20;;;11.85;;
46723;SDS011;32463;48.298;11.620;2023-09-12T03:54:38;18.40;;;13.10;;
46723;SDS011;32463;48.298;11.620;2023-09-12T03:57:04;18.50;;;11.18;;
46723;SDS011;32463;48.298;11.620;2023-09-12T03:59:31;17.13;;;10.98;;
46723;SDS011;32463;48.298;11.620;2023-09-12T04:01:57;17.42;;;10.75;;
46723;SDS011;32463;48.298;11.620;2023-09-12T04:04:24;21.42;;;13.18;;
46723;SDS011;32463;48.298;11.620;2023-09-12T04:06:50;20.05;;;12.38;;
46723;SDS011;32463;48.298;11.620;2023-09-12T04:09:16;18.20;;;12.05;;
46723;SDS011;32463;48.298;11.620;2023-09-12T04:11:43;16.55;;;11.30;;
46723;SDS011;32463;48.298;11.620;2023-09-12T04:14:09;18.48;;;10.88;;
46723;SDS011;32463;48.298;11.620;2023-09-12T04:16:36;18.05;;;10.85;;
46723;SDS011;32463;48.298;11.620;2023-09-12T04:19:03;20.17;;;11.52;;
46723;SDS011;32463;48.298;11.620;2023-09-12T04:21:30;17.20;;;10.65;;
46723;SDS011;32463;48.298;11.620;2023-09-12T04:23:56;23.88;;;13.13;;
46723;SDS011;32463;48.298;11.620;2023-09-12T04:26:22;24.13;;;14.00;;
46723;SDS011;32463;48.298;11.620;2023-09-12T04:28:50;20.90;;;12.48;;
46723;SDS011;32463;48.298;11.620;2023-09-12T04:31:16;20.27;;;11.65;;
46723;SDS011;32463;48.298;11.620;2023-09-12T04:33:42;17.10;;;11.52;;
46723;SDS011;32463;48.298;11.620;2023-09-12T04:36:09;19.33;;;11.98;;
46723;SDS011;32463;48.298;11.620;2023-09-12T04:38:35;23.50;;;12.73;;
46723;SDS011;32463;48.298;11.620;2023-09-12T04:41:02;21.13;;;11.93;;
46723;SDS011;32463;48.298;11.620;2023-09-12T04:43:30;22.10;;;12.10;;
46723;SDS011;32463;48.298;11.620;2023-09-12T04:45:57;18.75;;;11.13;;
46723;SDS011;32463;48.298;11.620;2023-09-12T04:48:23;18.80;;;12.25;;
46723;SDS011;32463;48.298;11.620;2023-09-12T04:50:50;20.92;;;12.18;;
46723;SDS011;32463;48.298;11.620;2023-09-12T04:53:16;17.85;;;10.43;;
46723;SDS011;32463;48.298;11.620;2023-09-12T04:55:43;18.55;;;11.38;;
46723;SDS011;32463;48.298;11.620;2023-09-12T04:58:09;16.42;;;10.77;;
46723;SDS011;32463;48.298;11.620;2023-09-12T05:00:36;18.20;;;11.77;;
46723;SDS011;32463;48.298;11.620;2023-09-12T05:03:06;18.13;;;10.98;;
46723;SDS011;32463;48.298;11.620;2023-09-12T05:05:34;16.25;;;10.18;;
46723;SDS011;32463;48.298;11.620;2023-09-12T05:08:01;17.10;;;10.75;;
46723;SDS011;32463;48.298;11.620;2023-09-12T05:10:28;15.95;;;10.82;;
46723;SDS011;32463;48.298;11.620;2023-09-12T05:12:55;14.77;;;10.10;;
46723;SDS011;32463;48.298;11.620;2023-09-12T05:15:22;23.48;;;10.50;;
46723;SDS011;32463;48.298;11.620;2023-09-12T05:17:48;21.77;;;11.63;;
46723;SDS011;32463;48.298;11.620;2023-09-12T05:20:14;18.50;;;11.30;;
46723;SDS011;32463;48.298;11.620;2023-09-12T05:22:41;19.52;;;10.60;;
46723;SDS011;32463;48.298;11.620;2023-09-12T05:25:07;19.30;;;11.38;;
46723;SDS011;32463;48.298;11.620;2023-09-12T05:27:34;17.92;;;12.43;;
46723;SDS011;32463;48.298;11.620;2023-09-12T05:30:01;19.27;;;11.93;;
46723;SDS011;32463;48.298;11.620;2023-09-12T05:32:28;22.45;;;12.23;;
46723;SDS011;32463;48.298;11.620;2023-09-12T05:34:54;17.05;;;11.30;;
46723;SDS011;32463;48.298;11.620;2023-09-12T05:37:21;18.13;;;10.80;;
46723;SDS011;32463;48.298;11.620;2023-09-12T05:39:47;16.13;;;10.88;;
46723;SDS011;32463;48.298;11.620;2023-09-12T05:42:13;15.52;;;11.02;;
46723;SDS011;32463;48.298;11.620;2023-09-12T05:44:45;15.07;;;10.32;;
46723;SDS011;32463;48.298;11.620;2023-09-12T05:47:13;14.20;;;10.05;;
46723;SDS011;32463;48.298;11.620;2023-09-12T05:49:40;15.05;;;10.35;;
46723;SDS011;32463;48.298;11.620;2023-09-12T05:52:07;16.20;;;10.48;;
46723;SDS011;32463;48.298;11.620;2023-09-12T05:54:33;16.10;;;11.80;;
46723;SDS011;32463;48.298;11.620;2023-09-12T05:56:59;19.17;;;11.27;;
46723;SDS011;32463;48.298;11.620;2023-09-12T05:59:26;18.10;;;11.15;;
46723;SDS011;32463;48.298;11.620;2023-09-12T06:01:53;17.40;;;10.95;;
46723;SDS011;32463;48.298;11.620;2023-09-12T06:04:21;18.65;;;10.68;;
46723;SDS011;32463;48.298;11.620;2023-09-12T06:06:47;19.98;;;10.85;;
46723;SDS011;32463;48.298;11.620;2023-09-12T06:09:14;15.10;;;10.40;;
46723;SDS011;32463;48.298;11.620;2023-09-12T06:11:40;17.00;;;11.70;;
46723;SDS011;32463;48.298;11.620;2023-09-12T06:14:07;15.77;;;10.60;;
46723;SDS011;32463;48.298;11.620;2023-09-12T06:16:33;19.75;;;10.20;;
46723;SDS011;32463;48.298;11.620;2023-09-12T06:19:00;18.55;;;10.43;;
46723;SDS011;32463;48.298;11.620;2023-09-12T06:21:26;18.58;;;10.93;;
46723;SDS011;32463;48.298;11.620;2023-09-12T06:24:12;19.73;;;10.60;;
46723;SDS011;32463;48.298;11.620;2023-09-12T06:26:41;16.73;;;10.27;;
46723;SDS011;32463;48.298;11.620;2023-09-12T06:29:08;17.75;;;9.68;;
46723;SDS011;32463;48.298;11.620;2023-09-12T06:31:35;17.85;;;9.85;;
46723;SDS011;32463;48.298;11.620;2023-09-12T06:34:02;15.40;;;9.18;;
46723;SDS011;32463;48.298;11.620;2023-09-12T06:36:28;17.88;;;9.32;;
46723;SDS011;32463;48.298;11.620;2023-09-12T06:38:55;15.05;;;9.45;;
46723;SDS011;32463;48.298;11.620;2023-09-12T06:41:22;15.80;;;8.63;;
46723;SDS011;32463;48.298;11.620;2023-09-12T06:43:49;13.35;;;9.07;;
46723;SDS011;32463;48.298;11.620;2023-09-12T06:46:15;15.07;;;9.85;;
46723;SDS011;32463;48.298;11.620;2023-09-12T06:48:46;12.18;;;8.93;;
46723;SDS011;32463;48.298;11.620;2023-09-12T06:51:14;15.57;;;9.25;;
46723;SDS011;32463;48.298;11.620;2023-09-12T06:53:41;14.07;;;9.35;;
46723;SDS011;32463;48.298;11.620;2023-09-12T06:56:07;12.07;;;8.80;;
46723;SDS011;32463;48.298;11.620;2023-09-12T06:58:34;12.85;;;8.70;;
46723;SDS011;32463;48.298;11.620;2023-09-12T07:01:04;15.00;;;8.15;;
46723;SDS011;32463;48.298;11.620;2023-09-12T07:03:33;12.07;;;8.70;;
46723;SDS011;32463;48.298;11.620;2023-09-12T07:06:01;12.32;;;8.52;;
46723;SDS011;32463;48.298;11.620;2023-09-12T07:08:30;11.70;;;8.15;;
46723;SDS011;32463;48.298;11.620;2023-09-12T07:10:58;12.48;;;8.18;;
46723;SDS011;32463;48.298;11.620;2023-09-12T07:13:30;13.07;;;8.82;;
46723;SDS011;32463;48.298;11.620;2023-09-12T07:15:58;11.27;;;8.40;;
46723;SDS011;32463;48.298;11.620;2023-09-12T07:18:24;10.38;;;7.60;;
46723;SDS011;32463;48.298;11.620;2023-09-12T07:21:00;11.00;;;7.85;;
46723;SDS011;32463;48.298;11.620;2023-09-12T07:23:31;14.35;;;8.25;;
46723;SDS011;32463;48.298;11.620;2023-09-12T07:25:58;13.82;;;7.45;;
46723;SDS011;32463;48.298;11.620;2023-09-12T07:28:26;13.65;;;7.82;;
46723;SDS011;32463;48.298;11.620;2023-09-12T07:30:55;12.52;;;7.18;;
46723;SDS011;32463;48.298;11.620;2023-09-12T07:33:23;14.82;;;7.63;;
46723;SDS011;32463;48.298;11.620;2023-09-12T07:35:53;12.20;;;7.65;;
46723;SDS011;32463;48.298;11.620;2023-09-12T07:38:20;11.55;;;7.88;;
46723;SDS011;32463;48.298;11.620;2023-09-12T07:40:47;13.55;;;8.02;;
46723;SDS011;32463;48.298;11.620;2023-09-12T07:43:13;15.55;;;8.90;;
46723;SDS011;32463;48.298;11.620;2023-09-12T07:45:40;13.50;;;8.30;;
46723;SDS011;32463;48.298;11.620;2023-09-12T07:48:07;13.02;;;8.18;;
46723;SDS011;32463;48.298;11.620;2023-09-12T07:50:35;11.27;;;7.15;;
46723;SDS011;32463;48.298;11.620;2023-09-12T07:53:06;12.98;;;8.05;;
46723;SDS011;32463;48.298;11.620;2023-09-12T07:55:37;12.52;;;7.38;;
46723;SDS011;32463;48.298;11.620;2023-09-12T07:58:16;14.32;;;7.75;;
46723;SDS011;32463;48.298;11.620;2023-09-12T08:00:45;14.02;;;7.70;;
46723;SDS011;32463;48.298;11.620;2023-09-12T08:03:12;10.55;;;7.38;;
46723;SDS011;32463;48.298;11.620;2023-09-12T08:05:38;11.15;;;7.50;;
46723;SDS011;32463;48.298;11.620;2023-09-12T08:08:05;13.35;;;7.75;;
46723;SDS011;32463;48.298;11.620;2023-09-12T08:10:31;11.27;;;7.45;;
46723;SDS011;32463;48.298;11.620;2023-09-12T08:12:58;15.40;;;7.82;;
46723;SDS011;32463;48.298;11.620;2023-09-12T08:15:24;10.57;;;6.45;;
46723;SDS011;32463;48.298;11.620;2023-09-12T08:17:53;12.10;;;7.57;;
46723;SDS011;32463;48.298;11.620;2023-09-12T08:20:20;10.68;;;7.93;;
46723;SDS011;32463;48.298;11.620;2023-09-12T08:22:47;11.13;;;7.22;;
46723;SDS011;32463;48.298;11.620;2023-09-12T08:25:13;10.57;;;7.32;;
46723;SDS011;32463;48.298;11.620;2023-09-12T08:27:40;14.18;;;7.80;;
46723;SDS011;32463;48.298;11.620;2023-09-12T08:30:08;10.18;;;6.70;;
46723;SDS011;32463;48.298;11.620;2023-09-12T08:32:36;13.02;;;6.82;;
46723;SDS011;32463;48.298;11.620;2023-09-12T08:35:04;14.23;;;6.97;;
46723;SDS011;32463;48.298;11.620;2023-09-12T08:37:32;11.75;;;7.00;;
46723;SDS011;32463;48.298;11.620;2023-09-12T08:39:58;10.32;;;6.68;;
46723;SDS011;32463;48.298;11.620;2023-09-12T08:42:26;9.32;;;6.20;;
46723;SDS011;32463;48.298;11.620;2023-09-12T08:44:53;9.60;;;6.40;;
46723;SDS011;32463;48.298;11.620;2023-09-12T08:47:19;8.93;;;6.35;;
46723;SDS011;32463;48.298;11.620;2023-09-12T08:49:49;11.30;;;7.38;;
46723;SDS011;32463;48.298;11.620;2023-09-12T08:52:16;8.73;;;5.72;;
46723;SDS011;32463;48.298;11.620;2023-09-12T08:54:42;13.70;;;7.43;;
46723;SDS011;32463;48.298;11.620;2023-09-12T08:57:09;8.90;;;6.47;;
46723;SDS011;32463;48.298;11.620;2023-09-12T08:59:38;8.93;;;5.97;;
46723;SDS011;32463;48.298;11.620;2023-09-12T09:02:07;9.90;;;6.10;;
46723;SDS011;32463;48.298;11.620;2023-09-12T09:04:35;9.75;;;6.35;;
46723;SDS011;32463;48.298;11.620;2023-09-12T09:07:03;11.63;;;6.45;;
46723;SDS011;32463;48.298;11.620;2023-09-12T09:09:30;12.02;;;6.43;;
46723;SDS011;32463;48.298;11.620;2023-09-12T09:11:58;9.13;;;6.45;;
46723;SDS011;32463;48.298;11.620;2023-09-12T09:14:24;8.18;;;6.53;;
46723;SDS011;32463;48.298;11.620;2023-09-12T09:16:51;9.55;;;6.43;;
46723;SDS011;32463;48.298;11.620;2023-09-12T09:19:17;17.70;;;11.82;;
46723;SDS011;32463;48.298;11.620;2023-09-12T09:21:45;11.45;;;7.32;;
46723;SDS011;32463;48.298;11.620;2023-09-12T09:24:13;9.50;;;7.05;;
46723;SDS011;32463;48.298;11.620;2023-09-12T09:26:47;9.98;;;6.15;;
46723;SDS011;32463;48.298;11.620;2023-09-12T09:29:18;8.05;;;6.13;;
46723;SDS011;32463;48.298;11.620;2023-09-12T09:31:47;8.48;;;6.88;;
46723;SDS011;32463;48.298;11.620;2023-09-12T09:34:18;13.07;;;6.38;;
46723;SDS011;32463;48.298;11.620;2023-09-12T09:39:17;11.10;;;6.47;;
46723;SDS011;32463;48.298;11.620;2023-09-12T09:41:52;13.93;;;5.57;;
46723;SDS011;32463;48.298;11.620;2023-09-12T09:44:20;8.95;;;6.30;;
46723;SDS011;32463;48.298;11.620;2023-09-12T09:46:50;12.80;;;7.90;;
46723;SDS011;32463;48.298;11.620;2023-09-12T09:49:19;9.48;;;6.18;;
46723;SDS011;32463;48.298;11.620;2023-09-12T09:51:46;9.77;;;6.38;;
46723;SDS011;32463;48.298;11.620;2023-09-12T09:54:12;9.43;;;7.40;;
46723;SDS011;32463;48.298;11.620;2023-09-12T09:56:46;9.82;;;6.65;;
46723;SDS011;32463;48.298;11.620;2023-09-12T09:59:14;8.85;;;6.28;;
46723;SDS011;32463;48.298;11.620;2023-09-12T10:01:43;13.15;;;6.95;;
46723;SDS011;32463;48.298;11.620;2023-09-12T10:04:10;20.25;;;7.72;;
46723;SDS011;32463;48.298;11.620;2023-09-12T10:06:37;10.40;;;7.43;;
46723;SDS011;32463;48.298;11.620;2023-09-12T10:09:05;11.75;;;6.65;;
46723;SDS011;32463;48.298;11.620;2023-09-12T10:11:35;11.15;;;6.75;;
46723;SDS011;32463;48.298;11.620;2023-09-12T10:14:05;11.32;;;7.43;;
46723;SDS011;32463;48.298;11.620;2023-09-12T10:16:36;10.48;;;6.75;;
46723;SDS011;32463;48.298;11.620;2023-09-12T10:21:49;11.80;;;6.50;;
46723;SDS011;32463;48.298;11.620;2023-09-12T10:24:20;9.32;;;6.68;;
46723;SDS011;32463;48.298;11.620;2023-09-12T10:26:49;13.60;;;7.10;;
46723;SDS011;32463;48.298;11.620;2023-09-12T10:29:16;7.38;;;6.35;;
46723;SDS011;32463;48.298;11.620;2023-09-12T10:31:43;10.85;;;6.10;;
46723;SDS011;32463;48.298;11.620;2023-09-12T10:34:10;8.95;;;5.97;;
46723;SDS011;32463;48.298;11.620;2023-09-12T10:36:39;8.57;;;6.20;;
46723;SDS011;32463;48.298;11.620;2023-09-12T10:39:07;8.00;;;6.05;;
46723;SDS011;32463;48.298;11.620;2023-09-12T10:41:38;8.05;;;5.93;;
46723;SDS011;32463;48.298;11.620;2023-09-12T10:44:14;8.98;;;6.00;;
46723;SDS011;32463;48.298;11.620;2023-09-12T10:46:43;11.00;;;6.45;;
46723;SDS011;32463;48.298;11.620;2023-09-12T10:49:11;9.00;;;5.85;;
46723;SDS011;32463;48.298;11.620;2023-09-12T10:51:42;8.23;;;5.53;;
46723;SDS011;32463;48.298;11.620;2023-09-12T10:54:14;6.40;;;5.00;;
46723;SDS011;32463;48.298;11.620;2023-09-12T10:57:01;7.53;;;5.75;;
46723;SDS011;32463;48.298;11.620;2023-09-12T10:59:30;10.25;;;6.28;;
46723;SDS011;32463;48.298;11.620;2023-09-12T11:04:58;8.75;;;5.82;;
46723;SDS011;32463;48.298;11.620;2023-09-12T11:12:40;9.30;;;6.18;;
46723;SDS011;32463;48.298;11.620;2023-09-12T11:15:07;9.00;;;6.50;;
46723;SDS011;32463;48.298;11.620;2023-09-12T11:17:45;10.85;;;6.78;;
46723;SDS011;32463;48.298;11.620;2023-09-12T11:20:13;8.60;;;5.75;;
46723;SDS011;32463;48.298;11.620;2023-09-12T11:22:46;11.57;;;6.00;;
46723;SDS011;32463;48.298;11.620;2023-09-12T11:25:23;10.10;;;5.80;;
46723;SDS011;32463;48.298;11.620;2023-09-12T11:32:46;8.65;;;5.88;;
46723;SDS011;32463;48.298;11.620;2023-09-12T11:35:14;10.90;;;6.45;;
46723;SDS011;32463;48.298;11.620;2023-09-12T11:37:50;9.20;;;5.95;;
46723;SDS011;32463;48.298;11.620;2023-09-12T11:40:22;10.52;;;6.18;;
46723;SDS011;32463;48.298;11.620;2023-09-12T11:42:50;11.45;;;5.55;;
46723;SDS011;32463;48.298;11.620;2023-09-12T11:45:18;8.40;;;5.50;;
46723;SDS011;32463;48.298;11.620;2023-09-12T11:47:46;8.90;;;5.18;;
46723;SDS011;32463;48.298;11.620;2023-09-12T11:56:17;7.68;;;5.15;;
46723;SDS011;32463;48.298;11.620;2023-09-12T11:58:25;7.05;;;5.75;;
46723;SDS011;32463;48.298;11.620;2023-09-12T12:00:53;8.15;;;5.28;;
46723;SDS011;32463;48.298;11.620;2023-09-12T12:03:22;10.40;;;5.80;;
46723;SDS011;32463;48.298;11.620;2023-09-12T12:05:50;8.50;;;5.93;;
46723;SDS011;32463;48.298;11.620;2023-09-12T12:08:17;10.15;;;6.10;;
46723;SDS011;32463;48.298;11.620;2023-09-12T12:10:48;9.20;;;6.03;;
46723;SDS011;32463;48.298;11.620;2023-09-12T12:13:16;9.68;;;6.00;;
46723;SDS011;32463;48.298;11.620;2023-09-12T12:15:44;11.25;;;5.90;;
46723;SDS011;32463;48.298;11.620;2023-09-12T12:18:10;6.93;;;6.18;;
46723;SDS011;32463;48.298;11.620;2023-09-12T12:20:37;8.20;;;6.80;;
46723;SDS011;32463;48.298;11.620;2023-09-12T12:23:03;7.10;;;6.00;;
46723;SDS011;32463;48.298;11.620;2023-09-12T12:25:33;8.85;;;5.57;;
46723;SDS011;32463;48.298;11.620;2023-09-12T12:28:01;8.75;;;5.63;;
46723;SDS011;32463;48.298;11.620;2023-09-12T12:30:32;8.75;;;6.60;;
46723;SDS011;32463;48.298;11.620;2023-09-12T12:33:01;9.40;;;5.53;;
46723;SDS011;32463;48.298;11.620;2023-09-12T12:35:32;6.30;;;5.43;;
46723;SDS011;32463;48.298;11.620;2023-09-12T12:37:59;8.65;;;5.50;;
46723;SDS011;32463;48.298;11.620;2023-09-12T12:40:25;8.73;;;5.80;;
46723;SDS011;32463;48.298;11.620;2023-09-12T12:42:52;7.70;;;5.80;;
46723;SDS011;32463;48.298;11.620;2023-09-12T12:45:19;8.15;;;6.00;;
46723;SDS011;32463;48.298;11.620;2023-09-12T12:47:55;7.25;;;5.35;;
46723;SDS011;32463;48.298;11.620;2023-09-12T12:50:25;7.47;;;5.57;;
46723;SDS011;32463;48.298;11.620;2023-09-12T12:52:52;7.47;;;5.97;;
46723;SDS011;32463;48.298;11.620;2023-09-12T12:55:20;9.38;;;6.05;;
46723;SDS011;32463;48.298;11.620;2023-09-12T12:57:47;8.82;;;5.80;;
46723;SDS011;32463;48.298;11.620;2023-09-12T13:00:15;8.65;;;5.75;;
46723;SDS011;32463;48.298;11.620;2023-09-12T13:02:44;9.75;;;5.55;;
46723;SDS011;32463;48.298;11.620;2023-09-12T13:05:30;8.75;;;5.28;;
46723;SDS011;32463;48.298;11.620;2023-09-12T13:07:57;8.10;;;6.03;;
46723;SDS011;32463;48.298;11.620;2023-09-12T13:10:23;8.27;;;5.57;;
46723;SDS011;32463;48.298;11.620;2023-09-12T13:12:50;8.05;;;6.25;;
46723;SDS011;32463;48.298;11.620;2023-09-12T13:15:17;8.70;;;5.20;;
46723;SDS011;32463;48.298;11.620;2023-09-12T13:17:43;11.00;;;5.80;;
46723;SDS011;32463;48.298;11.620;2023-09-12T13:20:10;7.22;;;5.30;;
46723;SDS011;32463;48.298;11.620;2023-09-12T13:22:37;7.70;;;5.40;;
46723;SDS011;32463;48.298;11.620;2023-09-12T13:25:04;8.20;;;5.82;;
46723;SDS011;32463;48.298;11.620;2023-09-12T13:27:32;7.28;;;5.60;;
46723;SDS011;32463;48.298;11.620;2023-09-12T13:29:58;7.78;;;5.32;;
46723;SDS011;32463;48.298;11.620;2023-09-12T13:32:25;8.95;;;5.65;;
46723;SDS011;32463;48.298;11.620;2023-09-12T13:34:52;9.18;;;5.63;;
46723;SDS011;32463;48.298;11.620;2023-09-12T13:37:19;6.82;;;5.35;;
46723;SDS011;32463;48.298;11.620;2023-09-12T13:39:46;8.68;;;6.03;;
46723;SDS011;32463;48.298;11.620;2023-09-12T13:42:17;8.70;;;5.13;;
46723;SDS011;32463;48.298;11.620;2023-09-12T13:44:47;7.55;;;5.30;;
46723;SDS011;32463;48.298;11.620;2023-09-12T13:47:14;13.93;;;6.15;;
46723;SDS011;32463;48.298;11.620;2023-09-12T13:49:46;9.98;;;5.30;;
46723;SDS011;32463;48.298;11.620;2023-09-12T13:52:12;7.18;;;5.40;;
46723;SDS011;32463;48.298;11.620;2023-09-12T13:54:39;8.02;;;5.85;;
46723;SDS011;32463;48.298;11.620;2023-09-12T13:57:06;11.73;;;6.13;;
46723;SDS011;32463;48.298;11.620;2023-09-12T13:59:32;12.00;;;6.55;;
46723;SDS011;32463;48.298;11.620;2023-09-12T14:01:59;8.30;;;6.10;;
46723;SDS011;32463;48.298;11.620;2023-09-12T14:04:25;13.35;;;6.47;;
46723;SDS011;32463;48.298;11.620;2023-09-12T14:06:52;9.23;;;6.30;;
46723;SDS011;32463;48.298;11.620;2023-09-12T14:09:18;7.47;;;5.93;;
46723;SDS011;32463;48.298;11.620;2023-09-12T14:11:44;9.35;;;6.43;;
46723;SDS011;32463;48.298;11.620;2023-09-12T14:14:11;8.52;;;6.63;;
46723;SDS011;32463;48.298;11.620;2023-09-12T14:16:38;8.85;;;6.18;;
46723;SDS011;32463;48.298;11.620;2023-09-12T14:19:05;10.00;;;6.38;;
46723;SDS011;32463;48.298;11.620;2023-09-12T14:21:31;8.93;;;5.97;;
46723;SDS011;32463;48.298;11.620;2023-09-12T14:23:58;8.35;;;6.28;;
46723;SDS011;32463;48.298;11.620;2023-09-12T14:26:25;8.88;;;5.85;;
46723;SDS011;32463;48.298;11.620;2023-09-12T14:28:51;7.82;;;5.82;;
46723;SDS011;32463;48.298;11.620;2023-09-12T14:31:18;11.15;;;6.93;;
46723;SDS011;32463;48.298;11.620;2023-09-12T14:33:44;13.10;;;6.88;;
46723;SDS011;32463;48.298;11.620;2023-09-12T14:36:11;10.57;;;6.38;;
46723;SDS011;32463;48.298;11.620;2023-09-12T14:38:38;9.60;;;6.13;;
46723;SDS011;32463;48.298;11.620;2023-09-12T14:41:04;19.42;;;7.38;;
46723;SDS011;32463;48.298;11.620;2023-09-12T14:43:31;10.82;;;6.45;;
46723;SDS011;32463;48.298;11.620;2023-09-12T14:45:57;7.47;;;5.68;;
46723;SDS011;32463;48.298;11.620;2023-09-12T14:48:23;10.38;;;6.15;;
46723;SDS011;32463;48.298;11.620;2023-09-12T14:50:50;11.27;;;6.22;;
46723;SDS011;32463;48.298;11.620;2023-09-12T14:53:16;8.85;;;5.93;;